sensor_id;sensor_type;location;lat;lon;timestamp;P1;durP1;ratioP1;P2;durP2;ratioP2
18104;SDS011;9179;50.968;3.134;2023-02-02T00:02:07;11.27;;;4.82;;
18104;SDS011;9179;50.968;3.134;2023-02-02T00:04:35;13.68;;;4.72;;
18104;SDS011;9179;50.968;3.134;2023-02-02T00:07:02;10.27;;;4.13;;
18104;SDS011;9179;50.968;3.134;2023-02-02T00:09:31;8.82;;;4.53;;
18104;SDS011;9179;50.968;3.134;2023-02-02T00:11:59;12.82;;;4.25;;
18104;SDS011;9179;50.968;3.134;2023-02-02T00:14:26;10.02;;;5.47;;
18104;SDS011;9179;50.968;3.134;2023-02-02T00:16:54;15.95;;;4.90;;
18104;SDS011;9179;50.968;3.134;2023-02-02T00:19:23;10.15;;;4.07;;
18104;SDS011;9179;50.968;3.134;2023-02-02T00:21:52;11.15;;;4.43;;
18104;SDS011;9179;50.968;3.134;2023-02-02T00:24:19;6.53;;;4.03;;
18104;SDS011;9179;50.968;3.134;2023-02-02T00:26:48;11.10;;;4.70;;
18104;SDS011;9179;50.968;3.134;2023-02-02T00:29:18;11.25;;;5.43;;
18104;SDS011;9179;50.968;3.134;2023-02-02T00:31:46;12.77;;;4.82;;
18104;SDS011;9179;50.968;3.134;2023-02-02T00:34:14;9.13;;;4.65;;
18104;SDS011;9179;50.968;3.134;2023-02-02T00:36:43;10.25;;;4.75;;
18104;SDS011;9179;50.968;3.134;2023-02-02T00:39:13;14.75;;;4.57;;
18104;SDS011;9179;50.968;3.134;2023-02-02T00:41:41;10.25;;;4.38;;
18104;SDS011;9179;50.968;3.134;2023-02-02T00:44:08;13.02;;;5.72;;
18104;SDS011;9179;50.968;3.134;2023-02-02T00:46:52;10.77;;;4.15;;
18104;SDS011;9179;50.968;3.134;2023-02-02T00:49:19;12.35;;;6.07;;
18104;SDS011;9179;50.968;3.134;2023-02-02T00:51:48;11.88;;;5.45;;
18104;SDS011;9179;50.968;3.134;2023-02-02T00:54:15;10.15;;;4.03;;
18104;SDS011;9179;50.968;3.134;2023-02-02T00:56:42;11.25;;;4.57;;
18104;SDS011;9179;50.968;3.134;2023-02-02T00:59:09;9.35;;;5.85;;
18104;SDS011;9179;50.968;3.134;2023-02-02T01:01:36;11.73;;;4.25;;
18104;SDS011;9179;50.968;3.134;2023-02-02T01:04:03;14.35;;;5.10;;
18104;SDS011;9179;50.968;3.134;2023-02-02T01:06:30;12.90;;;4.97;;
18104;SDS011;9179;50.968;3.134;2023-02-02T01:08:58;10.35;;;4.32;;
18104;SDS011;9179;50.968;3.134;2023-02-02T01:11:25;12.43;;;4.95;;
18104;SDS011;9179;50.968;3.134;2023-02-02T01:13:52;9.25;;;3.90;;
18104;SDS011;9179;50.968;3.134;2023-02-02T01:16:19;8.77;;;4.50;;
18104;SDS011;9179;50.968;3.134;2023-02-02T01:18:47;13.45;;;5.18;;
18104;SDS011;9179;50.968;3.134;2023-02-02T01:21:14;12.18;;;4.28;;
18104;SDS011;9179;50.968;3.134;2023-02-02T01:23:41;11.75;;;3.85;;
18104;SDS011;9179;50.968;3.134;2023-02-02T01:26:10;12.10;;;4.35;;
18104;SDS011;9179;50.968;3.134;2023-02-02T01:28:37;10.75;;;3.95;;
18104;SDS011;9179;50.968;3.134;2023-02-02T01:31:06;6.82;;;4.32;;
18104;SDS011;9179;50.968;3.134;2023-02-02T01:33:34;12.38;;;4.65;;
18104;SDS011;9179;50.968;3.134;2023-02-02T01:36:03;10.50;;;4.35;;
18104;SDS011;9179;50.968;3.134;2023-02-02T01:38:31;12.18;;;4.82;;
18104;SDS011;9179;50.968;3.134;2023-02-02T01:40:59;12.63;;;5.97;;
18104;SDS011;9179;50.968;3.134;2023-02-02T01:43:30;8.73;;;3.95;;
18104;SDS011;9179;50.968;3.134;2023-02-02T01:46:17;8.40;;;4.35;;
18104;SDS011;9179;50.968;3.134;2023-02-02T01:48:45;15.65;;;4.75;;
18104;SDS011;9179;50.968;3.134;2023-02-02T01:51:15;13.38;;;4.57;;
18104;SDS011;9179;50.968;3.134;2023-02-02T01:53:44;7.32;;;4.18;;
18104;SDS011;9179;50.968;3.134;2023-02-02T01:56:13;8.55;;;4.53;;
18104;SDS011;9179;50.968;3.134;2023-02-02T01:58:46;13.85;;;4.53;;
18104;SDS011;9179;50.968;3.134;2023-02-02T02:01:13;9.02;;;4.05;;
18104;SDS011;9179;50.968;3.134;2023-02-02T02:03:40;7.65;;;3.83;;
18104;SDS011;9179;50.968;3.134;2023-02-02T02:06:08;11.68;;;3.92;;
18104;SDS011;9179;50.968;3.134;2023-02-02T02:08:39;18.42;;;4.57;;
18104;SDS011;9179;50.968;3.134;2023-02-02T02:11:11;6.50;;;3.38;;
18104;SDS011;9179;50.968;3.134;2023-02-02T02:13:38;8.45;;;3.58;;
18104;SDS011;9179;50.968;3.134;2023-02-02T02:16:27;11.27;;;4.43;;
18104;SDS011;9179;50.968;3.134;2023-02-02T02:19:03;13.15;;;4.13;;
18104;SDS011;9179;50.968;3.134;2023-02-02T02:21:45;6.63;;;3.67;;
18104;SDS011;9179;50.968;3.134;2023-02-02T02:24:55;8.40;;;3.65;;
18104;SDS011;9179;50.968;3.134;2023-02-02T02:34:29;8.13;;;4.45;;
18104;SDS011;9179;50.968;3.134;2023-02-02T02:37:06;9.73;;;3.65;;
18104;SDS011;9179;50.968;3.134;2023-02-02T02:39:37;8.73;;;4.07;;
18104;SDS011;9179;50.968;3.134;2023-02-02T02:42:10;6.47;;;3.55;;
18104;SDS011;9179;50.968;3.134;2023-02-02T02:44:41;9.65;;;3.95;;
18104;SDS011;9179;50.968;3.134;2023-02-02T02:47:09;10.73;;;3.90;;
18104;SDS011;9179;50.968;3.134;2023-02-02T02:49:42;8.95;;;4.03;;
18104;SDS011;9179;50.968;3.134;2023-02-02T02:52:09;9.68;;;4.82;;
18104;SDS011;9179;50.968;3.134;2023-02-02T02:54:37;8.80;;;4.13;;
18104;SDS011;9179;50.968;3.134;2023-02-02T03:00:14;11.10;;;3.80;;
18104;SDS011;9179;50.968;3.134;2023-02-02T03:02:47;5.85;;;3.80;;
18104;SDS011;9179;50.968;3.134;2023-02-02T03:05:25;7.85;;;3.53;;
18104;SDS011;9179;50.968;3.134;2023-02-02T03:08:00;13.60;;;4.25;;
18104;SDS011;9179;50.968;3.134;2023-02-02T03:10:33;9.45;;;3.22;;
18104;SDS011;9179;50.968;3.134;2023-02-02T03:13:05;12.48;;;4.80;;
18104;SDS011;9179;50.968;3.134;2023-02-02T03:15:33;7.45;;;3.78;;
18104;SDS011;9179;50.968;3.134;2023-02-02T03:18:00;15.70;;;4.18;;
18104;SDS011;9179;50.968;3.134;2023-02-02T03:20:29;10.82;;;4.75;;
18104;SDS011;9179;50.968;3.134;2023-02-02T03:22:56;6.07;;;3.50;;
18104;SDS011;9179;50.968;3.134;2023-02-02T03:25:23;12.80;;;4.57;;
18104;SDS011;9179;50.968;3.134;2023-02-02T03:27:50;11.43;;;4.28;;
18104;SDS011;9179;50.968;3.134;2023-02-02T03:30:17;10.10;;;4.13;;
18104;SDS011;9179;50.968;3.134;2023-02-02T03:32:45;13.15;;;4.53;;
18104;SDS011;9179;50.968;3.134;2023-02-02T03:35:12;14.05;;;4.07;;
18104;SDS011;9179;50.968;3.134;2023-02-02T03:37:41;7.85;;;3.88;;
18104;SDS011;9179;50.968;3.134;2023-02-02T03:40:09;10.90;;;5.65;;
18104;SDS011;9179;50.968;3.134;2023-02-02T03:42:36;8.93;;;4.63;;
18104;SDS011;9179;50.968;3.134;2023-02-02T03:45:04;12.73;;;4.88;;
18104;SDS011;9179;50.968;3.134;2023-02-02T03:47:31;12.07;;;4.10;;
18104;SDS011;9179;50.968;3.134;2023-02-02T03:49:58;10.50;;;4.00;;
18104;SDS011;9179;50.968;3.134;2023-02-02T03:52:25;15.05;;;4.35;;
18104;SDS011;9179;50.968;3.134;2023-02-02T03:54:54;8.32;;;4.07;;
18104;SDS011;9179;50.968;3.134;2023-02-02T03:57:21;9.07;;;3.85;;
18104;SDS011;9179;50.968;3.134;2023-02-02T03:59:48;10.75;;;4.28;;
18104;SDS011;9179;50.968;3.134;2023-02-02T04:02:15;10.27;;;3.72;;
18104;SDS011;9179;50.968;3.134;2023-02-02T04:04:41;10.45;;;3.95;;
18104;SDS011;9179;50.968;3.134;2023-02-02T04:07:09;10.55;;;3.90;;
18104;SDS011;9179;50.968;3.134;2023-02-02T04:09:35;6.95;;;3.65;;
18104;SDS011;9179;50.968;3.134;2023-02-02T04:12:04;7.20;;;3.63;;
18104;SDS011;9179;50.968;3.134;2023-02-02T04:14:31;6.25;;;3.60;;
18104;SDS011;9179;50.968;3.134;2023-02-02T04:16:58;6.97;;;4.43;;
18104;SDS011;9179;50.968;3.134;2023-02-02T04:19:25;8.77;;;3.80;;
18104;SDS011;9179;50.968;3.134;2023-02-02T04:21:52;6.93;;;4.10;;
18104;SDS011;9179;50.968;3.134;2023-02-02T04:24:19;7.97;;;3.90;;
18104;SDS011;9179;50.968;3.134;2023-02-02T04:26:46;8.80;;;3.65;;
18104;SDS011;9179;50.968;3.134;2023-02-02T04:29:15;9.65;;;4.72;;
18104;SDS011;9179;50.968;3.134;2023-02-02T04:31:42;8.43;;;4.65;;
18104;SDS011;9179;50.968;3.134;2023-02-02T04:34:09;9.52;;;5.40;;
18104;SDS011;9179;50.968;3.134;2023-02-02T04:36:35;13.15;;;4.47;;
18104;SDS011;9179;50.968;3.134;2023-02-02T04:39:03;11.27;;;5.07;;
18104;SDS011;9179;50.968;3.134;2023-02-02T04:41:30;11.02;;;4.20;;
18104;SDS011;9179;50.968;3.134;2023-02-02T04:43:57;8.55;;;3.50;;
18104;SDS011;9179;50.968;3.134;2023-02-02T04:46:25;8.95;;;3.78;;
18104;SDS011;9179;50.968;3.134;2023-02-02T04:48:53;10.65;;;4.40;;
18104;SDS011;9179;50.968;3.134;2023-02-02T04:51:20;10.05;;;4.15;;
18104;SDS011;9179;50.968;3.134;2023-02-02T04:53:47;11.07;;;4.05;;
18104;SDS011;9179;50.968;3.134;2023-02-02T04:56:14;10.07;;;3.70;;
18104;SDS011;9179;50.968;3.134;2023-02-02T04:58:43;8.88;;;3.38;;
18104;SDS011;9179;50.968;3.134;2023-02-02T05:01:11;8.32;;;3.63;;
18104;SDS011;9179;50.968;3.134;2023-02-02T05:03:42;9.10;;;4.10;;
18104;SDS011;9179;50.968;3.134;2023-02-02T05:06:09;8.68;;;3.75;;
18104;SDS011;9179;50.968;3.134;2023-02-02T05:08:37;8.60;;;3.88;;
18104;SDS011;9179;50.968;3.134;2023-02-02T05:11:07;7.32;;;3.47;;
18104;SDS011;9179;50.968;3.134;2023-02-02T05:13:34;14.02;;;4.38;;
18104;SDS011;9179;50.968;3.134;2023-02-02T05:16:02;7.80;;;4.22;;
18104;SDS011;9179;50.968;3.134;2023-02-02T05:18:29;10.80;;;3.42;;
18104;SDS011;9179;50.968;3.134;2023-02-02T05:20:59;10.07;;;4.53;;
18104;SDS011;9179;50.968;3.134;2023-02-02T05:23:26;8.68;;;3.63;;
18104;SDS011;9179;50.968;3.134;2023-02-02T05:25:54;8.45;;;4.32;;
18104;SDS011;9179;50.968;3.134;2023-02-02T05:28:22;12.10;;;5.28;;
18104;SDS011;9179;50.968;3.134;2023-02-02T05:30:49;8.13;;;4.05;;
18104;SDS011;9179;50.968;3.134;2023-02-02T05:33:17;9.77;;;3.78;;
18104;SDS011;9179;50.968;3.134;2023-02-02T05:35:44;10.57;;;4.25;;
18104;SDS011;9179;50.968;3.134;2023-02-02T05:38:12;7.78;;;3.80;;
18104;SDS011;9179;50.968;3.134;2023-02-02T05:40:40;9.30;;;3.85;;
18104;SDS011;9179;50.968;3.134;2023-02-02T05:43:07;9.32;;;3.55;;
18104;SDS011;9179;50.968;3.134;2023-02-02T05:45:34;7.22;;;3.78;;
18104;SDS011;9179;50.968;3.134;2023-02-02T05:48:01;5.85;;;3.35;;
18104;SDS011;9179;50.968;3.134;2023-02-02T05:50:28;10.02;;;4.40;;
18104;SDS011;9179;50.968;3.134;2023-02-02T05:52:55;8.45;;;3.65;;
18104;SDS011;9179;50.968;3.134;2023-02-02T05:55:24;8.40;;;3.58;;
18104;SDS011;9179;50.968;3.134;2023-02-02T05:57:51;5.28;;;3.35;;
18104;SDS011;9179;50.968;3.134;2023-02-02T06:00:18;6.05;;;3.08;;
18104;SDS011;9179;50.968;3.134;2023-02-02T06:02:45;8.30;;;3.22;;
18104;SDS011;9179;50.968;3.134;2023-02-02T06:05:12;6.90;;;3.03;;
18104;SDS011;9179;50.968;3.134;2023-02-02T06:07:39;4.60;;;2.97;;
18104;SDS011;9179;50.968;3.134;2023-02-02T06:10:06;8.52;;;3.80;;
18104;SDS011;9179;50.968;3.134;2023-02-02T06:12:35;8.82;;;3.35;;
18104;SDS011;9179;50.968;3.134;2023-02-02T06:15:03;6.78;;;3.67;;
18104;SDS011;9179;50.968;3.134;2023-02-02T06:17:30;13.38;;;3.75;;
18104;SDS011;9179;50.968;3.134;2023-02-02T06:19:57;5.75;;;2.90;;
18104;SDS011;9179;50.968;3.134;2023-02-02T06:22:24;8.25;;;3.58;;
18104;SDS011;9179;50.968;3.134;2023-02-02T06:24:51;4.10;;;2.70;;
18104;SDS011;9179;50.968;3.134;2023-02-02T06:27:18;4.88;;;3.00;;
18104;SDS011;9179;50.968;3.134;2023-02-02T06:29:47;7.25;;;2.67;;
18104;SDS011;9179;50.968;3.134;2023-02-02T06:32:14;5.40;;;2.83;;
18104;SDS011;9179;50.968;3.134;2023-02-02T06:34:41;8.23;;;3.00;;
18104;SDS011;9179;50.968;3.134;2023-02-02T06:37:08;5.55;;;3.00;;
18104;SDS011;9179;50.968;3.134;2023-02-02T06:39:35;8.13;;;2.65;;
18104;SDS011;9179;50.968;3.134;2023-02-02T06:42:02;8.75;;;3.33;;
18104;SDS011;9179;50.968;3.134;2023-02-02T06:44:29;5.72;;;2.42;;
18104;SDS011;9179;50.968;3.134;2023-02-02T06:46:57;8.82;;;3.17;;
18104;SDS011;9179;50.968;3.134;2023-02-02T06:49:24;8.93;;;3.70;;
18104;SDS011;9179;50.968;3.134;2023-02-02T06:51:51;4.90;;;2.70;;
18104;SDS011;9179;50.968;3.134;2023-02-02T06:54:18;5.65;;;2.90;;
18104;SDS011;9179;50.968;3.134;2023-02-02T06:56:45;4.45;;;2.67;;
18104;SDS011;9179;50.968;3.134;2023-02-02T06:59:12;4.63;;;2.75;;
18104;SDS011;9179;50.968;3.134;2023-02-02T07:01:39;7.03;;;3.00;;
18104;SDS011;9179;50.968;3.134;2023-02-02T07:04:08;8.00;;;2.85;;
18104;SDS011;9179;50.968;3.134;2023-02-02T07:06:35;7.57;;;2.80;;
18104;SDS011;9179;50.968;3.134;2023-02-02T07:09:03;9.10;;;3.40;;
18104;SDS011;9179;50.968;3.134;2023-02-02T07:11:30;6.60;;;3.17;;
18104;SDS011;9179;50.968;3.134;2023-02-02T07:13:59;9.13;;;3.45;;
18104;SDS011;9179;50.968;3.134;2023-02-02T07:16:26;7.40;;;3.25;;
18104;SDS011;9179;50.968;3.134;2023-02-02T07:18:54;5.45;;;2.72;;
18104;SDS011;9179;50.968;3.134;2023-02-02T07:21:23;7.40;;;2.63;;
18104;SDS011;9179;50.968;3.134;2023-02-02T07:23:52;8.43;;;3.17;;
18104;SDS011;9179;50.968;3.134;2023-02-02T07:26:19;8.00;;;3.60;;
18104;SDS011;9179;50.968;3.134;2023-02-02T07:28:46;5.30;;;2.53;;
18104;SDS011;9179;50.968;3.134;2023-02-02T07:31:14;7.68;;;3.10;;
18104;SDS011;9179;50.968;3.134;2023-02-02T07:33:43;5.70;;;3.25;;
18104;SDS011;9179;50.968;3.134;2023-02-02T07:36:10;6.43;;;3.33;;
18104;SDS011;9179;50.968;3.134;2023-02-02T07:38:41;9.68;;;3.13;;
18104;SDS011;9179;50.968;3.134;2023-02-02T07:41:08;9.30;;;2.97;;
18104;SDS011;9179;50.968;3.134;2023-02-02T07:43:35;5.93;;;3.20;;
18104;SDS011;9179;50.968;3.134;2023-02-02T07:46:04;8.18;;;3.05;;
18104;SDS011;9179;50.968;3.134;2023-02-02T07:48:34;8.52;;;4.25;;
18104;SDS011;9179;50.968;3.134;2023-02-02T07:51:02;7.15;;;2.92;;
18104;SDS011;9179;50.968;3.134;2023-02-02T07:53:29;3.47;;;2.75;;
18104;SDS011;9179;50.968;3.134;2023-02-02T07:56:05;3.65;;;2.40;;
18104;SDS011;9179;50.968;3.134;2023-02-02T07:58:33;5.95;;;2.58;;
18104;SDS011;9179;50.968;3.134;2023-02-02T08:01:01;6.47;;;3.53;;
18104;SDS011;9179;50.968;3.134;2023-02-02T08:03:28;6.68;;;3.60;;
18104;SDS011;9179;50.968;3.134;2023-02-02T08:05:56;6.93;;;2.83;;
18104;SDS011;9179;50.968;3.134;2023-02-02T08:08:23;7.10;;;3.38;;
18104;SDS011;9179;50.968;3.134;2023-02-02T08:10:51;8.23;;;3.50;;
18104;SDS011;9179;50.968;3.134;2023-02-02T08:13:20;7.70;;;4.72;;
18104;SDS011;9179;50.968;3.134;2023-02-02T08:15:47;7.28;;;3.28;;
18104;SDS011;9179;50.968;3.134;2023-02-02T08:18:14;5.18;;;2.80;;
18104;SDS011;9179;50.968;3.134;2023-02-02T08:20:41;9.63;;;3.20;;
18104;SDS011;9179;50.968;3.134;2023-02-02T08:23:08;4.95;;;3.00;;
18104;SDS011;9179;50.968;3.134;2023-02-02T08:25:39;7.88;;;3.30;;
18104;SDS011;9179;50.968;3.134;2023-02-02T08:28:07;7.90;;;3.88;;
18104;SDS011;9179;50.968;3.134;2023-02-02T08:30:35;12.15;;;3.17;;
18104;SDS011;9179;50.968;3.134;2023-02-02T08:33:02;3.78;;;2.80;;
18104;SDS011;9179;50.968;3.134;2023-02-02T08:35:29;6.32;;;3.10;;
18104;SDS011;9179;50.968;3.134;2023-02-02T08:37:56;5.75;;;3.35;;
18104;SDS011;9179;50.968;3.134;2023-02-02T08:40:27;12.35;;;3.65;;
18104;SDS011;9179;50.968;3.134;2023-02-02T08:42:54;3.92;;;3.00;;
18104;SDS011;9179;50.968;3.134;2023-02-02T08:45:21;6.05;;;2.80;;
18104;SDS011;9179;50.968;3.134;2023-02-02T08:47:49;7.10;;;3.63;;
18104;SDS011;9179;50.968;3.134;2023-02-02T08:50:17;7.00;;;3.50;;
18104;SDS011;9179;50.968;3.134;2023-02-02T08:52:44;9.18;;;3.50;;
18104;SDS011;9179;50.968;3.134;2023-02-02T08:55:11;8.25;;;4.00;;
18104;SDS011;9179;50.968;3.134;2023-02-02T08:57:39;8.40;;;4.45;;
18104;SDS011;9179;50.968;3.134;2023-02-02T09:00:06;11.07;;;3.30;;
18104;SDS011;9179;50.968;3.134;2023-02-02T09:02:34;13.38;;;4.65;;
18104;SDS011;9179;50.968;3.134;2023-02-02T09:05:02;8.90;;;3.17;;
18104;SDS011;9179;50.968;3.134;2023-02-02T09:07:31;7.53;;;4.32;;
18104;SDS011;9179;50.968;3.134;2023-02-02T09:09:58;7.63;;;3.85;;
18104;SDS011;9179;50.968;3.134;2023-02-02T09:12:25;9.25;;;2.78;;
18104;SDS011;9179;50.968;3.134;2023-02-02T09:14:52;4.45;;;3.03;;
18104;SDS011;9179;50.968;3.134;2023-02-02T09:17:19;6.43;;;2.90;;
18104;SDS011;9179;50.968;3.134;2023-02-02T09:19:48;8.73;;;3.40;;
18104;SDS011;9179;50.968;3.134;2023-02-02T09:22:16;12.05;;;3.95;;
18104;SDS011;9179;50.968;3.134;2023-02-02T09:24:43;7.70;;;3.20;;
18104;SDS011;9179;50.968;3.134;2023-02-02T09:27:10;9.05;;;3.78;;
18104;SDS011;9179;50.968;3.134;2023-02-02T09:29:37;5.05;;;3.35;;
18104;SDS011;9179;50.968;3.134;2023-02-02T09:32:04;7.65;;;3.38;;
18104;SDS011;9179;50.968;3.134;2023-02-02T09:34:31;7.63;;;2.75;;
18104;SDS011;9179;50.968;3.134;2023-02-02T09:36:58;7.88;;;3.35;;
18104;SDS011;9179;50.968;3.134;2023-02-02T09:39:27;6.38;;;2.97;;
18104;SDS011;9179;50.968;3.134;2023-02-02T09:42:00;3.50;;;3.00;;
18104;SDS011;9179;50.968;3.134;2023-02-02T09:44:58;8.48;;;3.22;;
18104;SDS011;9179;50.968;3.134;2023-02-02T09:47:34;8.35;;;3.15;;
18104;SDS011;9179;50.968;3.134;2023-02-02T09:50:17;3.90;;;2.50;;
18104;SDS011;9179;50.968;3.134;2023-02-02T09:52:54;7.72;;;3.25;;
18104;SDS011;9179;50.968;3.134;2023-02-02T09:55:27;6.50;;;3.10;;
18104;SDS011;9179;50.968;3.134;2023-02-02T09:57:59;8.85;;;3.03;;
18104;SDS011;9179;50.968;3.134;2023-02-02T10:00:33;5.00;;;2.60;;
18104;SDS011;9179;50.968;3.134;2023-02-02T10:03:03;9.07;;;3.58;;
18104;SDS011;9179;50.968;3.134;2023-02-02T10:05:43;7.72;;;3.28;;
18104;SDS011;9179;50.968;3.134;2023-02-02T10:08:18;4.97;;;2.63;;
18104;SDS011;9179;50.968;3.134;2023-02-02T10:10:51;4.80;;;2.58;;
18104;SDS011;9179;50.968;3.134;2023-02-02T10:13:20;7.28;;;2.60;;
18104;SDS011;9179;50.968;3.134;2023-02-02T10:15:57;10.00;;;3.53;;
18104;SDS011;9179;50.968;3.134;2023-02-02T10:18:29;7.35;;;2.70;;
18104;SDS011;9179;50.968;3.134;2023-02-02T10:21:09;8.07;;;3.40;;
18104;SDS011;9179;50.968;3.134;2023-02-02T10:23:38;7.45;;;3.30;;
18104;SDS011;9179;50.968;3.134;2023-02-02T10:26:15;9.35;;;2.90;;
18104;SDS011;9179;50.968;3.134;2023-02-02T10:28:50;9.20;;;3.22;;
18104;SDS011;9179;50.968;3.134;2023-02-02T10:31:33;8.02;;;3.47;;
18104;SDS011;9179;50.968;3.134;2023-02-02T10:34:10;9.93;;;3.75;;
18104;SDS011;9179;50.968;3.134;2023-02-02T10:36:45;6.85;;;2.65;;
18104;SDS011;9179;50.968;3.134;2023-02-02T10:39:24;4.97;;;2.95;;
18104;SDS011;9179;50.968;3.134;2023-02-02T10:42:05;5.60;;;2.60;;
18104;SDS011;9179;50.968;3.134;2023-02-02T10:44:44;6.63;;;2.70;;
18104;SDS011;9179;50.968;3.134;2023-02-02T10:47:15;5.70;;;2.22;;
18104;SDS011;9179;50.968;3.134;2023-02-02T10:49:50;9.27;;;2.75;;
18104;SDS011;9179;50.968;3.134;2023-02-02T10:52:24;9.07;;;3.08;;
18104;SDS011;9179;50.968;3.134;2023-02-02T10:54:56;5.57;;;2.80;;
18104;SDS011;9179;50.968;3.134;2023-02-02T10:57:45;8.30;;;2.55;;
18104;SDS011;9179;50.968;3.134;2023-02-02T11:00:20;3.83;;;2.13;;
18104;SDS011;9179;50.968;3.134;2023-02-02T11:02:50;7.90;;;3.30;;
18104;SDS011;9179;50.968;3.134;2023-02-02T11:05:19;6.07;;;2.92;;
18104;SDS011;9179;50.968;3.134;2023-02-02T11:08:12;5.10;;;2.53;;
18104;SDS011;9179;50.968;3.134;2023-02-02T11:10:40;7.50;;;3.05;;
18104;SDS011;9179;50.968;3.134;2023-02-02T11:13:11;7.95;;;2.50;;
18104;SDS011;9179;50.968;3.134;2023-02-02T11:15:45;6.40;;;2.83;;
18104;SDS011;9179;50.968;3.134;2023-02-02T11:18:12;2.97;;;2.28;;
18104;SDS011;9179;50.968;3.134;2023-02-02T11:20:50;6.18;;;2.33;;
18104;SDS011;9179;50.968;3.134;2023-02-02T11:23:18;8.18;;;2.88;;
18104;SDS011;9179;50.968;3.134;2023-02-02T11:25:55;4.55;;;2.10;;
18104;SDS011;9179;50.968;3.134;2023-02-02T11:28:26;3.97;;;2.33;;
18104;SDS011;9179;50.968;3.134;2023-02-02T11:30:55;4.43;;;2.47;;
18104;SDS011;9179;50.968;3.134;2023-02-02T11:33:27;3.00;;;2.30;;
18104;SDS011;9179;50.968;3.134;2023-02-02T11:35:56;5.78;;;1.98;;
18104;SDS011;9179;50.968;3.134;2023-02-02T11:38:25;2.88;;;1.77;;
18104;SDS011;9179;50.968;3.134;2023-02-02T11:40:53;5.15;;;2.00;;
18104;SDS011;9179;50.968;3.134;2023-02-02T11:43:27;4.68;;;1.90;;
18104;SDS011;9179;50.968;3.134;2023-02-02T11:45:56;5.47;;;1.55;;
18104;SDS011;9179;50.968;3.134;2023-02-02T11:48:27;5.68;;;2.22;;
18104;SDS011;9179;50.968;3.134;2023-02-02T11:50:57;4.47;;;1.95;;
18104;SDS011;9179;50.968;3.134;2023-02-02T11:53:26;5.38;;;2.47;;
18104;SDS011;9179;50.968;3.134;2023-02-02T11:55:55;6.50;;;2.70;;
18104;SDS011;9179;50.968;3.134;2023-02-02T11:58:26;3.95;;;2.33;;
18104;SDS011;9179;50.968;3.134;2023-02-02T12:00:55;2.25;;;1.83;;
18104;SDS011;9179;50.968;3.134;2023-02-02T12:03:25;1.90;;;1.77;;
18104;SDS011;9179;50.968;3.134;2023-02-02T12:05:54;3.75;;;2.20;;
18104;SDS011;9179;50.968;3.134;2023-02-02T12:08:21;3.97;;;2.13;;
18104;SDS011;9179;50.968;3.134;2023-02-02T12:10:50;7.10;;;2.30;;
18104;SDS011;9179;50.968;3.134;2023-02-02T12:13:30;2.75;;;2.20;;
18104;SDS011;9179;50.968;3.134;2023-02-02T12:16:10;2.40;;;2.20;;
18104;SDS011;9179;50.968;3.134;2023-02-02T12:18:48;3.45;;;1.65;;
18104;SDS011;9179;50.968;3.134;2023-02-02T12:21:37;4.22;;;2.30;;
18104;SDS011;9179;50.968;3.134;2023-02-02T12:24:22;5.78;;;1.80;;
18104;SDS011;9179;50.968;3.134;2023-02-02T12:26:56;5.93;;;2.08;;
18104;SDS011;9179;50.968;3.134;2023-02-02T12:29:40;5.75;;;2.95;;
18104;SDS011;9179;50.968;3.134;2023-02-02T12:32:25;4.38;;;1.77;;
18104;SDS011;9179;50.968;3.134;2023-02-02T12:35:20;2.55;;;1.63;;
18104;SDS011;9179;50.968;3.134;2023-02-02T12:37:59;5.35;;;2.22;;
18104;SDS011;9179;50.968;3.134;2023-02-02T12:40:37;3.53;;;1.90;;
18104;SDS011;9179;50.968;3.134;2023-02-02T12:43:20;7.88;;;2.53;;
18104;SDS011;9179;50.968;3.134;2023-02-02T12:45:59;1.40;;;1.30;;
18104;SDS011;9179;50.968;3.134;2023-02-02T12:48:56;4.32;;;2.00;;
18104;SDS011;9179;50.968;3.134;2023-02-02T12:51:40;3.92;;;1.85;;
18104;SDS011;9179;50.968;3.134;2023-02-02T12:54:32;2.10;;;1.90;;
18104;SDS011;9179;50.968;3.134;2023-02-02T12:57:11;2.92;;;1.75;;
18104;SDS011;9179;50.968;3.134;2023-02-02T12:59:48;2.70;;;1.98;;
18104;SDS011;9179;50.968;3.134;2023-02-02T13:02:35;1.85;;;1.73;;
18104;SDS011;9179;50.968;3.134;2023-02-02T13:05:17;2.65;;;1.67;;
18104;SDS011;9179;50.968;3.134;2023-02-02T13:07:59;2.58;;;2.30;;
18104;SDS011;9179;50.968;3.134;2023-02-02T13:10:32;3.90;;;2.22;;
18104;SDS011;9179;50.968;3.134;2023-02-02T13:13:03;5.90;;;2.20;;
18104;SDS011;9179;50.968;3.134;2023-02-02T13:15:36;3.35;;;1.90;;
18104;SDS011;9179;50.968;3.134;2023-02-02T13:18:07;1.80;;;1.70;;
18104;SDS011;9179;50.968;3.134;2023-02-02T13:20:39;7.10;;;2.00;;
18104;SDS011;9179;50.968;3.134;2023-02-02T13:23:11;3.58;;;2.03;;
18104;SDS011;9179;50.968;3.134;2023-02-02T13:25:45;3.58;;;2.00;;
18104;SDS011;9179;50.968;3.134;2023-02-02T13:28:19;3.20;;;2.05;;
18104;SDS011;9179;50.968;3.134;2023-02-02T13:30:55;5.88;;;2.20;;
18104;SDS011;9179;50.968;3.134;2023-02-02T13:33:27;5.82;;;2.08;;
18104;SDS011;9179;50.968;3.134;2023-02-02T13:35:59;4.35;;;2.17;;
18104;SDS011;9179;50.968;3.134;2023-02-02T13:38:29;2.17;;;1.98;;
18104;SDS011;9179;50.968;3.134;2023-02-02T13:40:59;1.90;;;1.55;;
18104;SDS011;9179;50.968;3.134;2023-02-02T13:43:32;2.65;;;2.17;;
18104;SDS011;9179;50.968;3.134;2023-02-02T13:46:07;4.50;;;2.30;;
18104;SDS011;9179;50.968;3.134;2023-02-02T13:48:44;4.10;;;2.25;;
18104;SDS011;9179;50.968;3.134;2023-02-02T13:57:28;1.95;;;1.55;;
18104;SDS011;9179;50.968;3.134;2023-02-02T14:00:12;4.35;;;1.88;;
18104;SDS011;9179;50.968;3.134;2023-02-02T14:02:45;3.53;;;1.80;;
18104;SDS011;9179;50.968;3.134;2023-02-02T14:05:20;3.25;;;2.03;;
18104;SDS011;9179;50.968;3.134;2023-02-02T14:07:53;6.40;;;1.95;;
18104;SDS011;9179;50.968;3.134;2023-02-02T14:10:25;3.33;;;1.80;;
18104;SDS011;9179;50.968;3.134;2023-02-02T14:13:04;2.50;;;1.83;;
18104;SDS011;9179;50.968;3.134;2023-02-02T14:15:57;2.47;;;1.75;;
18104;SDS011;9179;50.968;3.134;2023-02-02T14:30:28;3.90;;;1.70;;
18104;SDS011;9179;50.968;3.134;2023-02-02T14:35:53;2.75;;;1.75;;
18104;SDS011;9179;50.968;3.134;2023-02-02T14:41:24;3.50;;;2.55;;
18104;SDS011;9179;50.968;3.134;2023-02-02T14:44:21;2.22;;;2.03;;
18104;SDS011;9179;50.968;3.134;2023-02-02T14:46:48;4.75;;;2.00;;
18104;SDS011;9179;50.968;3.134;2023-02-02T14:49:17;3.55;;;2.45;;
18104;SDS011;9179;50.968;3.134;2023-02-02T14:51:49;3.63;;;2.22;;
18104;SDS011;9179;50.968;3.134;2023-02-02T14:54:23;3.33;;;2.30;;
18104;SDS011;9179;50.968;3.134;2023-02-02T14:56:56;4.25;;;2.30;;
18104;SDS011;9179;50.968;3.134;2023-02-02T14:59:27;5.70;;;2.28;;
18104;SDS011;9179;50.968;3.134;2023-02-02T15:02:16;2.30;;;2.10;;
18104;SDS011;9179;50.968;3.134;2023-02-02T15:04:46;3.47;;;2.20;;
18104;SDS011;9179;50.968;3.134;2023-02-02T15:13:59;4.28;;;2.67;;
18104;SDS011;9179;50.968;3.134;2023-02-02T15:16:31;2.95;;;2.35;;
18104;SDS011;9179;50.968;3.134;2023-02-02T15:19:07;4.25;;;2.35;;
18104;SDS011;9179;50.968;3.134;2023-02-02T15:21:40;9.38;;;3.80;;
18104;SDS011;9179;50.968;3.134;2023-02-02T15:24:14;3.72;;;2.33;;
18104;SDS011;9179;50.968;3.134;2023-02-02T15:26:47;6.88;;;3.30;;
18104;SDS011;9179;50.968;3.134;2023-02-02T15:29:18;3.30;;;2.38;;
18104;SDS011;9179;50.968;3.134;2023-02-02T15:31:53;6.25;;;2.95;;
18104;SDS011;9179;50.968;3.134;2023-02-02T15:34:22;6.80;;;3.03;;
18104;SDS011;9179;50.968;3.134;2023-02-02T15:36:52;3.88;;;2.67;;
18104;SDS011;9179;50.968;3.134;2023-02-02T15:39:25;4.78;;;2.65;;
18104;SDS011;9179;50.968;3.134;2023-02-02T15:41:55;3.97;;;2.30;;
18104;SDS011;9179;50.968;3.134;2023-02-02T15:44:42;3.05;;;2.35;;
18104;SDS011;9179;50.968;3.134;2023-02-02T15:47:11;3.42;;;2.30;;
18104;SDS011;9179;50.968;3.134;2023-02-02T15:49:42;3.42;;;2.60;;
18104;SDS011;9179;50.968;3.134;2023-02-02T15:52:12;2.38;;;2.00;;
18104;SDS011;9179;50.968;3.134;2023-02-02T15:54:47;6.50;;;2.83;;
18104;SDS011;9179;50.968;3.134;2023-02-02T15:57:22;6.60;;;3.00;;
18104;SDS011;9179;50.968;3.134;2023-02-02T15:59:53;6.95;;;2.92;;
18104;SDS011;9179;50.968;3.134;2023-02-02T16:02:22;3.92;;;3.20;;